Plan B — ZCND5 — position and weather

sailwx.info

Track history (hours):
 
Tides and Currents Weather Stations Pressure Air Temp Water Temp Dewpoint Dewpoint Depression Visibility Wind Speed Wind Dir Waves Ship Positions

Plan B

Last reported at 2016-Jun-24 12:33 UTC. Time now 2016-Jul-01 08:13 UTC.
Position N 53°46' E 003°16'.

Length 49 m; draft 3.2 m.

Type: Pleasure craft. MMSI: 319075000.

Date/timePositionNaut miles runAvg speedWind from/ knotsBaromVisibWave heightAir tempDewpointWater temp
2016-Jun-24 12:33N 53°46' E 003°16'1111.4
2016-Jun-24 11:33N 53°36' E 003°05'1111.1
2016-Jun-24 10:33N 53°26' E 002°57'1111.1
2016-Jun-24 09:33N 53°16' E 002°49'10812.0
2016-Jun-24 00:31N 51°30' E 002°13'1010.5
2016-Jun-23 23:33N 51°21' E 002°06'9 9.5
2016-Jun-23 22:33N 51°13' E 002°01'10 9.5
2016-Jun-23 21:33N 51°08' E 001°47'9 9.2
2016-Jun-23 20:32N 51°01' E 001°37'9 9.4
2016-Jun-23 19:33N 50°53' E 001°30'  
2016-Jun-18 16:31N 39°11' W 026°56'1111.1
2016-Jun-18 15:33N 39°06' W 027°08'1211.7
2016-Jun-18 14:33N 39°02' W 027°22'1211.9
2016-Jun-18 13:33N 38°58' W 027°36'1211.5
2016-Jun-18 12:33N 38°55' W 027°51'1111.5
2016-Jun-18 11:34N 38°51' W 028°05'1211.6
2016-Jun-18 10:34N 38°48' W 028°19'1111.1
2016-Jun-18 09:34N 38°40' W 028°29'1010.3
2016-Jun-18 08:33N 38°32' W 028°37'0 0.0
2016-Jun-18 07:31N 38°32' W 028°37'0 0.0
2016-Jun-18 06:34N 38°32' W 028°37'0 0.0
2016-Jun-18 05:31N 38°32' W 028°37'0 0.0
2016-Jun-18 04:31N 38°32' W 028°37'0 0.0
2016-Jun-18 03:33N 38°32' W 028°37'0 0.0
2016-Jun-18 02:33N 38°32' W 028°37'0 0.0
2016-Jun-18 01:31N 38°32' W 028°37'0 0.0
2016-Jun-18 00:33N 38°32' W 028°37'0 0.0
2016-Jun-17 23:33N 38°32' W 028°37'0 0.0
2016-Jun-17 22:33N 38°32' W 028°37'0 0.0
2016-Jun-17 21:33N 38°32' W 028°37'0 0.0
2016-Jun-17 20:30N 38°32' W 028°37'0 0.0
2016-Jun-17 19:33N 38°32' W 028°37'0 0.0
2016-Jun-17 18:33N 38°32' W 028°37'0 0.0
2016-Jun-17 17:30N 38°32' W 028°37'0 0.0
2016-Jun-17 16:33N 38°32' W 028°37'0 0.4
2016-Jun-17 15:33N 38°32' W 028°37'0 0.1
2016-Jun-17 14:32N 38°32' W 028°37'0 0.0
2016-Jun-17 13:32N 38°32' W 028°37'0 0.0
2016-Jun-17 12:32N 38°32' W 028°37'0 0.0
2016-Jun-17 11:32N 38°32' W 028°37'0 0.0
2016-Jun-17 10:32N 38°32' W 028°37'0 0.0
2016-Jun-17 09:32N 38°32' W 028°37'0 0.0
2016-Jun-17 08:33N 38°32' W 028°37'0 0.0
2016-Jun-17 07:33N 38°32' W 028°37'0 0.0
2016-Jun-17 06:34N 38°32' W 028°37'0 0.0
2016-Jun-17 05:33N 38°32' W 028°37'0 0.0
2016-Jun-17 04:34N 38°32' W 028°37'0 0.0
2016-Jun-17 03:33N 38°32' W 028°37'0 0.0
2016-Jun-17 02:34N 38°32' W 028°37'0 0.0
2016-Jun-17 01:34N 38°32' W 028°37'0 0.0
2016-Jun-17 00:33N 38°32' W 028°37'0 0.3
2016-Jun-16 23:33N 38°32' W 028°37'4 4.4
2016-Jun-16 22:33N 38°30' W 028°42'1111.3
2016-Jun-16 21:33N 38°31' W 028°56'1111.4
2016-Jun-16 20:33N 38°32' W 029°11'1211.7
2016-Jun-16 19:33N 38°34' W 029°25'1111.4
2016-Jun-16 18:34N 38°36' W 029°40'1111.0
2016-Jun-16 17:33N 38°37' W 029°54'1611.3
2016-Jun-16 16:08N 38°39' W 030°14'  
Track history (hours):
 
Tides and Currents Weather Stations Pressure Air Temp Water Temp Dewpoint Dewpoint Depression Visibility Wind Speed Wind Dir Waves Ship Positions

Plan B

Last reported at 2016-Jun-24 12:33 UTC. Time now 2016-Jul-01 08:13 UTC.
Position N 53°46' E 003°16'.

Length 49 m; draft 3.2 m.

Type: Pleasure craft. MMSI: 319075000.

Date/timePositionNaut miles runAvg speedWind from/ knotsBaromVisibWave heightAir tempDewpointWater temp
2016-Jun-24 12:33N 53°46' E 003°16'1111.4
2016-Jun-24 11:33N 53°36' E 003°05'1111.1
2016-Jun-24 10:33N 53°26' E 002°57'1111.1
2016-Jun-24 09:33N 53°16' E 002°49'10812.0
2016-Jun-24 00:31N 51°30' E 002°13'1010.5
2016-Jun-23 23:33N 51°21' E 002°06'9 9.5
2016-Jun-23 22:33N 51°13' E 002°01'10 9.5
2016-Jun-23 21:33N 51°08' E 001°47'9 9.2
2016-Jun-23 20:32N 51°01' E 001°37'9 9.4
2016-Jun-23 19:33N 50°53' E 001°30'  
2016-Jun-18 16:31N 39°11' W 026°56'1111.1
2016-Jun-18 15:33N 39°06' W 027°08'1211.7
2016-Jun-18 14:33N 39°02' W 027°22'1211.9
2016-Jun-18 13:33N 38°58' W 027°36'1211.5
2016-Jun-18 12:33N 38°55' W 027°51'1111.5
2016-Jun-18 11:34N 38°51' W 028°05'1211.6
2016-Jun-18 10:34N 38°48' W 028°19'1111.1
2016-Jun-18 09:34N 38°40' W 028°29'1010.3
2016-Jun-18 08:33N 38°32' W 028°37'0 0.0
2016-Jun-18 07:31N 38°32' W 028°37'0 0.0
2016-Jun-18 06:34N 38°32' W 028°37'0 0.0
2016-Jun-18 05:31N 38°32' W 028°37'0 0.0
2016-Jun-18 04:31N 38°32' W 028°37'0 0.0
2016-Jun-18 03:33N 38°32' W 028°37'0 0.0
2016-Jun-18 02:33N 38°32' W 028°37'0 0.0
2016-Jun-18 01:31N 38°32' W 028°37'0 0.0
2016-Jun-18 00:33N 38°32' W 028°37'0 0.0
2016-Jun-17 23:33N 38°32' W 028°37'0 0.0
2016-Jun-17 22:33N 38°32' W 028°37'0 0.0
2016-Jun-17 21:33N 38°32' W 028°37'0 0.0
2016-Jun-17 20:30N 38°32' W 028°37'0 0.0
2016-Jun-17 19:33N 38°32' W 028°37'0 0.0
2016-Jun-17 18:33N 38°32' W 028°37'0 0.0
2016-Jun-17 17:30N 38°32' W 028°37'0 0.0
2016-Jun-17 16:33N 38°32' W 028°37'0 0.4
2016-Jun-17 15:33N 38°32' W 028°37'0 0.1
2016-Jun-17 14:32N 38°32' W 028°37'0 0.0
2016-Jun-17 13:32N 38°32' W 028°37'0 0.0
2016-Jun-17 12:32N 38°32' W 028°37'0 0.0
2016-Jun-17 11:32N 38°32' W 028°37'0 0.0
2016-Jun-17 10:32N 38°32' W 028°37'0 0.0
2016-Jun-17 09:32N 38°32' W 028°37'0 0.0
2016-Jun-17 08:33N 38°32' W 028°37'0 0.0
2016-Jun-17 07:33N 38°32' W 028°37'0 0.0
2016-Jun-17 06:34N 38°32' W 028°37'0 0.0
2016-Jun-17 05:33N 38°32' W 028°37'0 0.0
2016-Jun-17 04:34N 38°32' W 028°37'0 0.0
2016-Jun-17 03:33N 38°32' W 028°37'0 0.0
2016-Jun-17 02:34N 38°32' W 028°37'0 0.0
2016-Jun-17 01:34N 38°32' W 028°37'0 0.0
2016-Jun-17 00:33N 38°32' W 028°37'0 0.3
2016-Jun-16 23:33N 38°32' W 028°37'4 4.4
2016-Jun-16 22:33N 38°30' W 028°42'1111.3
2016-Jun-16 21:33N 38°31' W 028°56'1111.4
2016-Jun-16 20:33N 38°32' W 029°11'1211.7
2016-Jun-16 19:33N 38°34' W 029°25'1111.4
2016-Jun-16 18:34N 38°36' W 029°40'1111.0
2016-Jun-16 17:33N 38°37' W 029°54'1611.3
2016-Jun-16 16:08N 38°39' W 030°14'  

Dump ship's entire track history